Time;durP1;ratioP1;P1;durP2;ratioP2;P2;SDS_P1;SDS_P2;PMS_P1;PMS_P2;Temp;Humidity;BMP_temperature;BMP_pressure;BME280_temperature;BME280_humidity;BME280_pressure;Samples;Min_cycle;Max_cycle;Signal;HPM_P1;HPM_P2
2023/12/01 00:00:20;;;;;;;33.40;17.90;;;;;;;3.46;80.70;98257.95;109563;1250;73354;-58
2023/12/01 00:02:48;;;;;;;27.90;17.20;;;;;;;3.34;81.67;98261.23;109310;1251;67124;-60
2023/12/01 00:05:16;;;;;;;32.00;18.80;;;;;;;3.45;81.23;98259.95;109536;1251;71555;-60
2023/12/01 00:07:43;;;;;;;33.20;17.80;;;;;;;3.52;81.19;98250.88;109581;1252;61665;-60
2023/12/01 00:10:11;;;;;;;36.20;19.60;;;;;;;3.40;81.61;98237.58;109597;1250;58922;-59
2023/12/01 00:12:39;;;;;;;34.00;19.10;;;;;;;3.47;81.54;98245.50;109488;1251;74695;-59
2023/12/01 00:15:07;;;;;;;30.00;17.90;;;;;;;3.55;81.25;98240.20;109665;1251;68561;-59
2023/12/01 00:17:34;;;;;;;35.40;17.80;;;;;;;3.34;82.13;98230.79;109347;1250;72671;-61
2023/12/01 00:20:02;;;;;;;31.10;16.70;;;;;;;3.39;82.45;98218.35;109358;1253;60360;-58
2023/12/01 00:22:30;;;;;;;27.60;17.40;;;;;;;3.41;82.45;98209.16;109605;1251;59932;-58
2023/12/01 00:24:57;;;;;;;28.10;15.00;;;;;;;3.47;82.23;98214.29;109602;1250;73540;-58
2023/12/01 00:27:25;;;;;;;32.60;15.60;;;;;;;3.58;81.65;98208.55;109543;1251;68831;-58
2023/12/01 00:29:52;;;;;;;32.50;15.80;;;;;;;3.60;81.58;98211.91;109611;1251;72716;-59
2023/12/01 00:32:20;;;;;;;26.70;16.10;;;;;;;3.71;81.04;98210.97;109594;1252;61674;-59
2023/12/01 00:34:47;;;;;;;27.60;16.00;;;;;;;3.78;80.57;98213.25;109580;1251;58893;-59
2023/12/01 00:37:16;;;;;;;29.50;14.80;;;;;;;3.77;80.82;98206.66;109652;1251;73371;-60
2023/12/01 00:39:44;;;;;;;27.60;13.70;;;;;;;3.85;80.60;98205.48;109553;1251;68393;-59
2023/12/01 00:42:13;;;;;;;29.60;18.10;;;;;;;3.76;80.85;98201.42;109564;1250;71985;-59
2023/12/01 00:44:41;;;;;;;28.80;17.00;;;;;;;3.67;81.72;98183.15;109632;1250;60908;-60
2023/12/01 00:47:08;;;;;;;28.00;16.40;;;;;;;3.71;81.72;98185.33;109523;1251;59066;-60
2023/12/01 00:49:36;;;;;;;28.40;15.90;;;;;;;3.53;83.03;98187.70;109573;1252;74551;-59
2023/12/01 00:52:04;;;;;;;27.10;14.30;;;;;;;3.71;82.18;98173.22;109576;1252;68466;-59
2023/12/01 00:54:32;;;;;;;27.20;16.60;;;;;;;3.70;82.14;98160.63;109468;1251;73054;-60
2023/12/01 00:57:00;;;;;;;;;;;;;;;3.70;82.48;98168.48;109446;1254;60891;-60
2023/12/01 00:59:28;;;;;;;26.50;16.00;;;;;;;3.70;82.67;98178.00;109580;1252;59036;-59
2023/12/01 01:01:55;;;;;;;26.50;16.50;;;;;;;3.75;82.55;98181.98;109343;1252;73367;-59
2023/12/01 01:04:23;;;;;;;26.10;16.80;;;;;;;3.78;82.55;98169.92;109440;1253;67144;-60
2023/12/01 01:06:51;;;;;;;28.40;16.70;;;;;;;3.79;82.62;98160.98;109528;1252;72632;-61
2023/12/01 01:09:19;;;;;;;28.10;17.70;;;;;;;3.79;82.53;98160.70;109563;1251;59534;-59
2023/12/01 01:11:47;;;;;;;28.90;16.00;;;;;;;3.87;82.29;98149.03;109550;1252;59079;-59
2023/12/01 01:14:14;;;;;;;24.20;14.70;;;;;;;3.82;82.34;98143.57;109430;1253;74576;-59
2023/12/01 01:16:42;;;;;;;30.40;16.70;;;;;;;3.76;83.12;98130.67;109508;1252;67614;-59
2023/12/01 01:19:09;;;;;;;24.30;15.20;;;;;;;3.80;83.03;98130.14;109476;1252;72737;-60
2023/12/01 01:21:54;;;;;;;28.40;14.10;;;;;;;3.80;83.25;98140.98;109368;1254;59589;-60
2023/12/01 01:24:22;;;;;;;25.50;14.10;;;;;;;3.68;84.00;98132.90;109629;1252;59982;-59
2023/12/01 01:26:50;;;;;;;25.70;13.70;;;;;;;3.78;83.81;98141.74;109575;1252;74771;-71
2023/12/01 01:29:17;;;;;;;25.50;16.00;;;;;;;3.84;83.62;98144.00;109571;1252;68695;-60
2023/12/01 01:31:45;;;;;;;26.80;17.60;;;;;;;3.95;83.29;98156.04;109184;1256;72610;-59
2023/12/01 01:34:12;;;;;;;27.00;15.50;;;;;;;3.82;83.91;98135.39;109137;1256;58956;-60
2023/12/01 01:36:40;;;;;;;29.20;17.10;;;;;;;3.76;84.34;98120.48;109342;1255;58942;-60
2023/12/01 01:39:07;;;;;;;18.90;11.30;;;;;;;3.79;84.51;98119.67;109146;1256;73434;-60
2023/12/01 01:41:35;;;;;;;31.00;17.40;;;;;;;3.76;84.83;98120.27;109070;1256;68397;-59
2023/12/01 01:44:02;;;;;;;34.10;20.20;;;;;;;3.84;84.64;98109.60;109332;1254;72626;-60
2023/12/01 01:46:30;;;;;;;26.80;15.20;;;;;;;3.86;84.71;98102.58;109274;1255;59724;-60
2023/12/01 01:48:58;;;;;;;25.40;13.30;;;;;;;3.88;84.74;98093.52;109190;1256;60012;-62
2023/12/01 01:51:25;;;;;;;24.30;14.20;;;;;;;3.87;84.54;98095.67;108994;1256;74610;-60
2023/12/01 01:53:54;;;;;;;30.50;16.30;;;;;;;3.94;84.39;98085.16;109172;1255;68435;-60
2023/12/01 01:56:21;;;;;;;28.10;16.20;;;;;;;4.08;83.61;98082.92;109249;1255;72647;-60
2023/12/01 01:58:50;;;;;;;31.60;17.30;;;;;;;4.06;83.54;98090.14;109160;1255;61052;-61
2023/12/01 02:01:18;;;;;;;22.40;13.20;;;;;;;4.06;83.60;98078.61;109164;1255;59997;-60
2023/12/01 02:03:46;;;;;;;28.90;17.10;;;;;;;4.06;83.73;98091.27;109151;1254;73429;-63
2023/12/01 02:06:14;;;;;;;31.80;15.20;;;;;;;4.00;84.09;98083.85;109230;1253;68505;-60
2023/12/01 02:08:44;;;;;;;36.80;20.30;;;;;;;3.94;84.77;98082.97;109147;1254;72680;-60
2023/12/01 02:11:14;;;;;;;37.40;20.20;;;;;;;4.09;83.93;98095.64;109150;1254;60847;-60
2023/12/01 02:13:43;;;;;;;29.20;17.80;;;;;;;4.05;84.20;98072.96;109324;1254;58912;-61
2023/12/01 02:16:10;;;;;;;36.70;20.20;;;;;;;4.02;84.39;98069.86;109145;1253;74588;-61
2023/12/01 02:18:38;;;;;;;42.30;20.20;;;;;;;4.13;83.89;98081.62;109436;1253;67251;-60
2023/12/01 02:21:06;;;;;;;29.60;17.20;;;;;;;4.23;83.44;98072.33;109461;1254;72727;-60
2023/12/01 02:23:35;;;;;;;34.40;19.10;;;;;;;4.22;83.33;98072.15;109448;1254;60946;-61
2023/12/01 02:26:03;;;;;;;37.20;19.50;;;;;;;4.03;84.65;98069.88;109193;1253;58840;-64
2023/12/01 02:28:31;;;;;;;25.90;12.90;;;;;;;4.05;84.81;98062.25;109438;1254;74692;-60
2023/12/01 02:30:58;;;;;;;27.10;15.80;;;;;;;4.05;84.83;98051.73;109418;1254;68476;-61
2023/12/01 02:33:26;;;;;;;28.50;18.50;;;;;;;4.02;84.87;98037.68;109425;1253;71512;-60
2023/12/01 02:35:53;;;;;;;33.20;17.40;;;;;;;4.03;85.10;98032.11;109369;1254;59630;-61
2023/12/01 02:38:21;;;;;;;25.90;14.20;;;;;;;4.07;84.95;98038.58;108721;1254;1002347;-63
2023/12/01 02:40:51;;;;;;;30.60;18.10;;;;;;;4.07;84.94;98044.52;109457;1253;74659;-61
2023/12/01 02:43:19;;;;;;;30.00;18.20;;;;;;;4.17;84.42;98048.41;109457;1251;68403;-61
2023/12/01 02:45:47;;;;;;;38.60;20.40;;;;;;;4.32;83.74;98043.68;109509;1254;72705;-61
2023/12/01 02:48:16;;;;;;;29.50;18.00;;;;;;;4.32;83.52;98048.41;109442;1254;60827;-62
2023/12/01 02:50:45;;;;;;;;;;;;;;;4.30;83.60;98054.60;109566;1252;58967;-61
2023/12/01 02:53:13;;;;;;;39.30;19.90;;;;;;;4.32;83.47;98052.40;109525;1252;73887;-62
2023/12/01 02:55:41;;;;;;;36.10;20.60;;;;;;;4.34;83.49;98041.21;109468;1252;68378;-63
2023/12/01 02:58:08;;;;;;;38.30;20.80;;;;;;;4.34;83.22;98036.96;109471;1253;72514;-61
2023/12/01 03:00:36;;;;;;;30.50;18.90;;;;;;;4.43;82.77;98029.66;109516;1252;61265;-60
2023/12/01 03:03:03;;;;;;;32.10;19.00;;;;;;;4.42;82.74;98014.04;109386;1253;60006;-63
2023/12/01 03:05:31;;;;;;;29.70;19.00;;;;;;;4.45;82.54;98012.80;109463;1253;74608;-61
2023/12/01 03:07:58;;;;;;;28.40;17.30;;;;;;;4.53;82.22;98020.52;109217;1253;67447;-63
2023/12/01 03:10:26;;;;;;;26.90;15.80;;;;;;;4.52;82.06;98021.02;109252;1253;71220;-61
2023/12/01 03:12:54;;;;;;;31.80;17.60;;;;;;;4.49;82.04;98034.61;109266;1254;59686;-61
2023/12/01 03:15:21;;;;;;;35.40;21.10;;;;;;;4.47;82.11;98030.45;109473;1253;59040;-62
2023/12/01 03:17:49;;;;;;;33.20;19.40;;;;;;;4.54;82.04;98014.99;108685;1252;1002186;-62
2023/12/01 03:20:16;;;;;;;34.10;20.00;;;;;;;4.55;81.86;98002.56;109473;1253;68465;-62
2023/12/01 03:22:45;;;;;;;34.50;20.30;;;;;;;4.40;82.46;97993.83;109470;1253;72682;-60
2023/12/01 03:25:13;;;;;;;;;;;;;;;4.44;82.48;98001.52;109473;1254;61306;-64
2023/12/01 03:27:42;;;;;;;47.50;23.40;;;;;;;4.45;82.48;97993.45;109547;1252;59783;-64
2023/12/01 03:30:14;;;;;;;38.00;20.10;;;;;;;4.44;82.62;97983.71;109465;1253;74645;-63
2023/12/01 03:32:49;;;;;;;40.90;23.00;;;;;;;4.44;82.72;97966.92;109077;1253;67428;-64
2023/12/01 03:35:21;;;;;;;37.40;21.80;;;;;;;4.53;82.34;97965.29;109465;1253;72848;-63
2023/12/01 03:37:50;;;;;;;42.80;21.70;;;;;;;4.49;82.37;97969.63;109250;1253;59765;-63
2023/12/01 03:40:18;;;;;;;67.30;29.40;;;;;;;4.52;82.29;97995.63;109450;1253;58967;-64
2023/12/01 03:42:46;;;;;;;79.80;38.40;;;;;;;4.61;82.03;97980.52;109487;1253;74610;-61
2023/12/01 03:45:14;;;;;;;60.30;29.10;;;;;;;4.56;82.03;97945.18;109604;1252;67721;-62
2023/12/01 03:47:46;;;;;;;48.90;26.00;;;;;;;4.62;81.64;97936.15;109581;1252;71480;-63
2023/12/01 03:50:14;;;;;;;50.90;26.10;;;;;;;4.63;81.69;97952.47;109561;1252;60883;-61
2023/12/01 03:52:43;;;;;;;66.00;33.40;;;;;;;4.60;81.85;97965.52;109617;1252;58897;-62
2023/12/01 03:55:11;;;;;;;;;;;;;;;4.66;81.39;97946.90;109547;1252;74678;-62
2023/12/01 03:57:39;;;;;;;39.80;20.20;;;;;;;4.67;81.12;97942.60;109576;1251;68362;-65
2023/12/01 04:00:09;;;;;;;45.00;21.80;;;;;;;4.61;81.45;97952.83;109487;1253;71450;-65
2023/12/01 04:02:41;;;;;;;37.50;21.40;;;;;;;4.63;81.41;97926.21;109568;1252;58997;-64
2023/12/01 04:05:17;;;;;;;39.40;21.30;;;;;;;4.65;81.20;97909.15;109621;1252;58816;-64
2023/12/01 04:07:52;;;;;;;28.80;17.30;;;;;;;4.73;81.17;97921.34;109472;1251;74589;-63
2023/12/01 04:10:27;;;;;;;35.60;20.90;;;;;;;4.72;81.13;97966.66;109555;1251;68832;-60
2023/12/01 04:12:56;;;;;;;48.10;23.90;;;;;;;4.66;81.62;97981.77;109556;1252;71407;-62
2023/12/01 04:15:26;;;;;;;45.70;26.40;;;;;;;4.69;81.51;97968.30;109172;1253;59689;-61
2023/12/01 04:17:55;;;;;;;45.90;26.10;;;;;;;4.69;81.28;97956.40;109454;1252;59921;-63
2023/12/01 04:20:25;;;;;;;46.50;25.60;;;;;;;4.67;81.46;97944.09;109567;1252;73400;-64
2023/12/01 04:22:59;;;;;;;60.50;32.20;;;;;;;4.55;81.93;97964.47;109571;1252;68361;-65
2023/12/01 04:25:27;;;;;;;43.90;24.20;;;;;;;4.36;83.66;97948.05;109498;1252;72394;-62
2023/12/01 04:27:56;;;;;;;43.30;25.10;;;;;;;4.46;82.91;97935.27;109581;1252;60927;-65
2023/12/01 04:30:24;;;;;;;50.10;28.10;;;;;;;4.50;82.81;97953.59;109582;1252;58841;-65
2023/12/01 04:32:54;;;;;;;39.30;23.30;;;;;;;4.42;83.49;97964.18;109593;1252;74537;-64
2023/12/01 04:35:34;;;;;;;45.80;25.10;;;;;;;4.53;83.15;97962.97;109605;1252;67424;-64
2023/12/01 04:38:05;;;;;;;38.30;19.00;;;;;;;4.57;82.73;97970.86;109575;1252;72612;-63
2023/12/01 04:40:36;;;;;;;41.50;24.30;;;;;;;4.47;83.29;97966.79;109578;1252;59689;-64
2023/12/01 04:43:04;;;;;;;51.90;27.60;;;;;;;4.47;83.53;97960.26;109493;1252;58832;-61
2023/12/01 04:45:32;;;;;;;56.40;30.60;;;;;;;4.39;84.09;97964.86;109570;1252;73372;-63
2023/12/01 04:48:00;;;;;;;110.40;54.50;;;;;;;4.45;83.86;97967.93;109354;1252;67101;-63
2023/12/01 04:50:30;;;;;;;42.30;24.20;;;;;;;4.42;84.20;97956.23;109353;1251;71204;-63
2023/12/01 04:52:58;;;;;;;42.30;24.70;;;;;;;4.52;83.70;97928.40;109611;1251;59152;-65
2023/12/01 04:55:27;;;;;;;45.60;25.10;;;;;;;4.54;83.48;97932.04;109612;1251;60062;-63
2023/12/01 04:57:55;;;;;;;39.60;21.70;;;;;;;4.48;84.10;97957.48;109606;1251;74662;-64
2023/12/01 05:00:25;;;;;;;66.90;35.40;;;;;;;4.58;83.51;97958.73;109579;1251;68472;-64
2023/12/01 05:03:15;;;;;;;49.50;27.80;;;;;;;4.63;83.00;97932.48;109559;1251;71431;-64
2023/12/01 05:05:42;;;;;;;51.80;28.00;;;;;;;4.47;83.94;97921.95;109576;1253;59348;-64
2023/12/01 05:08:10;;;;;;;53.40;27.70;;;;;;;4.64;83.34;97925.53;109302;1251;58905;-63
2023/12/01 05:10:38;;;;;;;62.20;36.10;;;;;;;4.67;82.89;97932.25;109474;1251;74742;-66
2023/12/01 05:13:06;;;;;;;56.60;28.80;;;;;;;4.42;84.33;97928.54;109572;1251;68329;-65
2023/12/01 05:15:35;;;;;;;93.30;48.70;;;;;;;4.24;85.85;97943.52;109621;1251;71377;-65
2023/12/01 05:18:05;;;;;;;145.10;77.30;;;;;;;4.33;85.88;97961.20;109403;1251;60878;-62
2023/12/01 05:20:33;;;;;;;76.40;39.40;;;;;;;4.35;84.98;97969.28;109598;1251;58964;-64
2023/12/01 05:23:05;;;;;;;77.30;43.50;;;;;;;4.43;84.67;97964.20;109576;1250;74666;-66
2023/12/01 05:25:33;;;;;;;155.50;63.40;;;;;;;4.54;84.10;97928.27;109632;1250;66942;-63
2023/12/01 05:28:02;;;;;;;68.00;34.50;;;;;;;4.52;84.13;97921.28;109575;1251;71438;-66
2023/12/01 05:30:34;;;;;;;76.80;34.00;;;;;;;4.22;85.63;97926.79;109627;1251;60837;-66
2023/12/01 05:33:04;;;;;;;146.80;57.10;;;;;;;4.04;87.29;97929.95;109592;1251;60025;-65
2023/12/01 05:35:33;;;;;;;283.10;105.60;;;;;;;4.19;86.73;97928.98;109594;1251;74597;-66
2023/12/01 05:38:01;;;;;;;150.50;57.20;;;;;;;4.34;85.92;97917.70;109564;1251;67138;-66
2023/12/01 05:40:30;;;;;;;58.10;31.10;;;;;;;4.30;86.75;97913.52;109622;1251;72726;-64
2023/12/01 05:42:58;;;;;;;142.60;56.50;;;;;;;4.15;86.98;97929.27;109590;1251;61078;-66
2023/12/01 05:45:28;;;;;;;439.90;145.30;;;;;;;4.27;86.32;97933.95;109567;1252;58964;-64
2023/12/01 05:47:56;;;;;;;324.50;117.40;;;;;;;4.18;86.97;97932.32;109576;1251;73134;-64
2023/12/01 05:50:27;;;;;;;;;;;;;;;4.30;86.04;97901.62;109633;1251;68774;-63
2023/12/01 05:52:59;;;;;;;65.80;33.90;;;;;;;4.39;85.33;97885.11;109582;1251;72952;-62
2023/12/01 05:55:29;;;;;;;77.20;33.80;;;;;;;4.27;86.08;97895.63;109577;1256;60868;-64
2023/12/01 05:58:06;;;;;;;193.60;76.60;;;;;;;4.07;87.71;97913.20;109558;1250;58955;-60
2023/12/01 06:00:34;;;;;;;231.90;98.50;;;;;;;4.30;86.39;97928.71;109562;1251;74646;-65
2023/12/01 06:03:06;;;;;;;257.10;92.80;;;;;;;4.23;87.19;97922.23;109552;1252;67538;-65
2023/12/01 06:05:35;;;;;;;438.20;169.80;;;;;;;4.23;86.97;97924.65;109155;1251;71414;-63
2023/12/01 06:08:03;;;;;;;205.30;85.90;;;;;;;4.14;87.68;97912.09;109582;1253;61242;-65
2023/12/01 06:10:32;;;;;;;265.50;106.70;;;;;;;4.22;87.11;97916.16;109430;1250;59022;-64
2023/12/01 06:13:00;;;;;;;78.40;37.70;;;;;;;4.21;86.52;97920.55;109606;1251;74576;-68
2023/12/01 06:15:31;;;;;;;116.80;57.50;;;;;;;4.25;86.25;97909.91;109616;1251;68847;-64
2023/12/01 06:18:00;;;;;;;107.20;52.10;;;;;;;4.33;86.24;97916.09;109589;1251;71384;-64
2023/12/01 06:20:30;;;;;;;50.10;26.90;;;;;;;4.25;86.26;97943.38;109621;1251;59570;-61
2023/12/01 06:23:05;;;;;;;45.80;26.20;;;;;;;4.39;85.65;97943.98;109446;1251;60050;-65
2023/12/01 06:25:36;;;;;;;43.50;25.30;;;;;;;4.50;85.04;97927.64;109592;1251;74649;-65
2023/12/01 06:28:04;;;;;;;41.50;23.60;;;;;;;4.53;84.10;97928.69;109597;1253;68679;-63
2023/12/01 06:30:33;;;;;;;41.40;21.90;;;;;;;4.52;84.29;97941.95;109631;1251;70952;-61
2023/12/01 06:33:03;;;;;;;46.20;23.90;;;;;;;4.47;84.79;97938.42;109556;1251;58932;-61
2023/12/01 06:35:31;;;;;;;48.60;25.20;;;;;;;4.49;84.95;97928.86;109636;1251;58925;-62
2023/12/01 06:37:59;;;;;;;46.30;25.60;;;;;;;4.68;84.06;97924.43;109609;1251;74610;-60
2023/12/01 06:40:27;;;;;;;63.80;30.10;;;;;;;4.71;83.70;97934.13;109617;1251;68567;-61
2023/12/01 06:42:55;;;;;;;77.10;38.90;;;;;;;4.63;83.91;97935.94;109566;1253;71480;-59
2023/12/01 06:45:26;;;;;;;107.90;47.70;;;;;;;4.68;83.62;97926.04;109646;1251;60891;-62
2023/12/01 06:47:58;;;;;;;54.20;26.30;;;;;;;4.82;82.87;97929.20;109393;1251;59977;-60
2023/12/01 06:50:28;;;;;;;50.30;26.30;;;;;;;4.94;82.03;97939.23;109625;1251;74621;-64
2023/12/01 06:53:00;;;;;;;98.50;51.90;;;;;;;5.06;81.54;97930.16;109628;1250;67411;-60
2023/12/01 06:55:28;;;;;;;64.10;36.80;;;;;;;4.96;81.94;97926.96;109579;1253;72755;-61
2023/12/01 06:57:56;;;;;;;53.40;25.90;;;;;;;4.74;83.14;97940.80;109592;1253;59589;-62
2023/12/01 07:00:29;;;;;;;185.90;71.10;;;;;;;4.89;82.63;97935.75;109600;1251;59995;-63
2023/12/01 07:03:00;;;;;;;260.20;81.20;;;;;;;5.00;81.99;97918.52;109319;1251;74647;-62
2023/12/01 07:05:29;;;;;;;117.60;48.30;;;;;;;5.19;81.56;97910.65;109561;1251;67104;-64
2023/12/01 07:07:57;;;;;;;49.30;28.50;;;;;;;5.27;80.16;97919.09;109443;1251;70793;-64
2023/12/01 07:10:25;;;;;;;69.40;33.00;;;;;;;5.28;79.61;97917.51;109465;1253;60859;-61
2023/12/01 07:12:52;;;;;;;78.80;35.60;;;;;;;5.15;79.88;97896.06;109618;1251;59990;-64
2023/12/01 07:15:23;;;;;;;98.10;45.70;;;;;;;5.33;79.59;97893.27;109590;1251;74645;-62
2023/12/01 07:17:51;;;;;;;69.40;36.30;;;;;;;5.37;79.13;97900.25;109620;1251;68447;-65
2023/12/01 07:20:19;;;;;;;;;;;;;;;5.43;78.65;97887.55;109361;1250;70873;-65
2023/12/01 07:22:48;;;;;;;63.30;32.30;;;;;;;5.27;79.06;97877.33;109590;1252;60841;-61
2023/12/01 07:25:23;;;;;;;482.30;183.20;;;;;;;5.26;79.06;97890.26;109628;1252;62223;-65
2023/12/01 07:27:58;;;;;;;93.60;37.80;;;;;;;5.09;80.35;97900.06;109615;1251;74664;-65
2023/12/01 07:30:27;;;;;;;247.30;97.80;;;;;;;4.98;80.80;97882.98;109600;1251;69031;-72
2023/12/01 07:32:57;;;;;;;59.80;29.80;;;;;;;5.22;80.31;97891.95;109597;1251;72186;-65
2023/12/01 07:35:24;;;;;;;46.20;23.40;;;;;;;5.38;79.24;97895.09;109628;1251;59605;-67
2023/12/01 07:37:55;;;;;;;43.40;25.00;;;;;;;5.52;77.73;97877.31;109599;1251;60960;-65
2023/12/01 07:40:23;;;;;;;79.20;37.40;;;;;;;5.52;77.37;97896.10;109604;1251;74591;-65
2023/12/01 07:42:54;;;;;;;58.10;29.40;;;;;;;5.46;77.78;97906.89;109599;1251;67332;-66
2023/12/01 07:45:23;;;;;;;69.00;36.50;;;;;;;5.40;78.14;97921.39;109617;1251;72674;-66
2023/12/01 07:47:52;;;;;;;48.90;26.20;;;;;;;5.28;79.58;97936.13;109612;1251;59593;-66
2023/12/01 07:50:20;;;;;;;48.10;27.50;;;;;;;5.56;78.77;97943.48;109677;1253;59036;-67
2023/12/01 07:52:49;;;;;;;39.70;25.20;;;;;;;5.89;77.49;97933.81;109584;1251;74674;-69
2023/12/01 07:55:17;;;;;;;45.80;23.90;;;;;;;5.99;76.02;97938.10;109631;1251;68690;-70
2023/12/01 07:57:44;;;;;;;44.70;27.90;;;;;;;6.01;75.10;97946.85;109550;1251;71404;-67
2023/12/01 08:00:16;;;;;;;46.90;24.20;;;;;;;6.00;75.11;97950.83;109639;1252;59884;-67
2023/12/01 08:02:46;;;;;;;36.90;20.10;;;;;;;5.96;74.49;97940.50;109606;1251;58914;-69
2023/12/01 08:05:14;;;;;;;39.90;23.70;;;;;;;5.99;74.69;97931.83;109678;1251;73339;-69
2023/12/01 08:07:54;;;;;;;32.80;21.20;;;;;;;5.79;75.10;97920.84;109556;1251;67143;-69
2023/12/01 08:10:25;;;;;;;33.50;22.50;;;;;;;5.67;75.96;97928.77;109594;1252;71188;-69
2023/12/01 08:12:56;;;;;;;34.70;20.10;;;;;;;5.77;75.42;97922.63;109595;1252;60782;-69
2023/12/01 08:15:26;;;;;;;55.40;29.90;;;;;;;5.90;75.25;97920.91;109335;1251;60075;-69
2023/12/01 08:17:56;;;;;;;42.10;25.90;;;;;;;5.94;74.61;97929.95;109454;1251;73429;-67
2023/12/01 08:20:24;;;;;;;78.00;48.50;;;;;;;6.25;73.96;97929.69;109614;1251;67419;-69
2023/12/01 08:22:52;;;;;;;54.80;39.20;;;;;;;6.45;72.25;97929.01;109539;1251;70415;-67
2023/12/01 08:25:22;;;;;;;45.30;28.70;;;;;;;6.43;70.56;97928.04;109543;1253;62372;-66
2023/12/01 08:27:52;;;;;;;61.80;35.70;;;;;;;6.56;70.86;97923.83;109596;1251;59849;-68
2023/12/01 08:30:19;;;;;;;137.10;81.10;;;;;;;6.46;70.93;97938.11;109552;1251;74200;-67
2023/12/01 08:32:48;;;;;;;44.80;27.70;;;;;;;6.45;70.75;97925.64;109583;1251;68397;-67
2023/12/01 08:35:16;;;;;;;75.60;48.30;;;;;;;6.50;70.96;97926.82;109616;1252;72766;-67
2023/12/01 08:37:44;;;;;;;52.00;33.50;;;;;;;6.81;70.28;97934.10;109306;1258;60592;-67
2023/12/01 08:40:12;;;;;;;49.60;27.70;;;;;;;6.93;68.73;97935.21;109433;1251;58821;-67
2023/12/01 08:42:41;;;;;;;46.30;29.70;;;;;;;6.79;68.49;97933.04;109643;1251;73710;-67
2023/12/01 08:45:10;;;;;;;45.90;28.10;;;;;;;6.67;68.83;97929.63;109566;1251;68462;-69
2023/12/01 08:47:38;;;;;;;44.40;28.60;;;;;;;6.48;69.78;97956.67;109572;1250;72758;-64
2023/12/01 08:50:07;;;;;;;40.30;24.30;;;;;;;6.44;70.61;97954.48;109637;1251;60008;-67
2023/12/01 08:52:37;;;;;;;44.80;27.00;;;;;;;6.50;70.55;97950.69;109607;1250;58884;-67
2023/12/01 08:55:06;;;;;;;50.70;31.40;;;;;;;6.44;70.23;97954.95;109336;1251;76793;-67
2023/12/01 08:57:34;;;;;;;;;;;;;;;6.47;69.56;97957.59;109411;1253;67247;-68
2023/12/01 09:00:02;;;;;;;93.50;71.50;;;;;;;6.38;69.82;97970.31;109543;1251;71419;-66
2023/12/01 09:02:30;;;;;;;143.40;125.00;;;;;;;6.32;70.83;97947.01;109590;1253;60772;-66
2023/12/01 09:04:58;;;;;;;86.20;57.10;;;;;;;6.23;70.26;97934.42;109256;1251;60939;-66
2023/12/01 09:07:25;;;;;;;85.00;56.60;;;;;;;6.28;70.38;97930.33;109572;1251;74989;-67
2023/12/01 09:09:58;;;;;;;64.10;39.40;;;;;;;6.43;69.47;97934.91;109351;1251;69733;-64
2023/12/01 09:12:26;;;;;;;60.80;42.90;;;;;;;6.56;69.25;97923.84;109586;1251;74928;-65
2023/12/01 09:14:54;;;;;;;88.30;63.80;;;;;;;6.51;68.78;97935.88;109575;1253;61581;-65
2023/12/01 09:17:22;;;;;;;71.60;48.20;;;;;;;6.62;68.10;97949.09;109247;1253;61994;-65
2023/12/01 09:19:50;;;;;;;55.20;37.20;;;;;;;6.71;68.00;97946.39;109200;1251;76762;-65
2023/12/01 09:22:18;;;;;;;42.90;26.80;;;;;;;6.60;67.58;97938.86;109454;1251;68772;-67
2023/12/01 09:24:46;;;;;;;48.50;29.30;;;;;;;6.60;68.05;97938.01;109357;1253;73716;-67
2023/12/01 09:27:13;;;;;;;48.70;29.00;;;;;;;6.63;67.56;97938.11;109584;1252;60089;-68
2023/12/01 09:29:41;;;;;;;46.40;31.30;;;;;;;6.36;68.13;97947.60;109587;1251;59111;-67
2023/12/01 09:32:09;;;;;;;70.90;45.50;;;;;;;6.35;68.50;97952.02;109602;1251;73453;-65
2023/12/01 09:34:37;;;;;;;53.70;34.40;;;;;;;6.36;68.28;97958.05;109611;1251;66743;-65
2023/12/01 09:37:04;;;;;;;48.90;28.90;;;;;;;6.61;67.89;97963.48;109560;1251;71466;-66
2023/12/01 09:39:32;;;;;;;52.60;31.80;;;;;;;6.67;67.86;97967.39;109543;1253;60655;-66
2023/12/01 09:41:59;;;;;;;88.60;51.00;;;;;;;6.55;67.41;97977.36;109618;1251;58996;-66
2023/12/01 09:44:27;;;;;;;70.10;40.70;;;;;;;6.62;67.88;97974.54;109376;1252;73819;-66
2023/12/01 09:46:55;;;;;;;107.70;73.20;;;;;;;6.61;67.20;97960.73;109534;1253;68806;-66
2023/12/01 09:49:22;;;;;;;90.40;61.60;;;;;;;6.55;67.62;97958.91;109564;1252;72730;-66
2023/12/01 09:51:50;;;;;;;71.50;47.30;;;;;;;6.92;67.56;97949.83;109593;1253;59737;-68
2023/12/01 09:54:18;;;;;;;88.20;53.50;;;;;;;6.95;65.55;97956.77;109578;1253;59132;-67
2023/12/01 09:56:45;;;;;;;56.50;35.60;;;;;;;6.86;65.90;97962.95;109565;1253;76497;-66
2023/12/01 09:59:16;;;;;;;73.60;52.10;;;;;;;6.85;66.04;97982.64;109522;1252;98996;-66
2023/12/01 10:01:44;;;;;;;51.80;33.20;;;;;;;6.88;66.43;98000.08;109630;1252;72714;-65
2023/12/01 10:04:12;;;;;;;40.50;25.50;;;;;;;6.90;66.38;97999.86;109497;1253;61332;-65
2023/12/01 10:06:40;;;;;;;37.80;20.90;;;;;;;6.73;65.78;97979.07;109556;1253;59013;-67
2023/12/01 10:09:10;;;;;;;35.40;21.80;;;;;;;6.60;66.72;97971.33;109594;1252;75605;-65
2023/12/01 10:11:38;;;;;;;40.90;26.00;;;;;;;6.46;66.58;97988.45;109572;1252;70647;-65
2023/12/01 10:14:09;;;;;;;43.20;26.80;;;;;;;6.51;67.47;97982.85;109509;1256;74835;-65
2023/12/01 10:16:36;;;;;;;36.80;23.50;;;;;;;6.73;67.17;97978.37;109569;1252;61754;-65
2023/12/01 10:19:04;;;;;;;37.50;23.20;;;;;;;6.92;67.03;97977.77;109563;1252;59078;-65
2023/12/01 10:21:51;;;;;;;37.00;22.30;;;;;;;7.11;67.27;97978.77;109646;1252;73499;-63
2023/12/01 10:24:22;;;;;;;37.60;22.20;;;;;;;7.22;66.02;97967.77;109599;1253;71079;-65
2023/12/01 10:26:53;;;;;;;36.80;24.70;;;;;;;7.22;65.77;97953.73;109539;1254;73619;-66
2023/12/01 10:29:28;;;;;;;35.10;21.90;;;;;;;7.15;65.23;97939.44;109582;1253;60857;-65
2023/12/01 10:32:00;;;;;;;51.10;26.90;;;;;;;7.16;65.36;97940.92;109612;1253;61008;-65
2023/12/01 10:34:28;;;;;;;46.10;28.70;;;;;;;7.32;65.39;97947.14;109559;1252;74979;-65
2023/12/01 10:36:56;;;;;;;44.70;27.70;;;;;;;7.51;64.18;97961.54;109657;1253;66715;-66
2023/12/01 10:39:27;;;;;;;43.90;27.30;;;;;;;7.49;63.88;97966.30;109588;1252;74881;-65
2023/12/01 10:41:58;;;;;;;48.80;28.30;;;;;;;7.42;64.67;97969.58;109579;1255;60597;-66
2023/12/01 10:44:31;;;;;;;37.20;22.80;;;;;;;7.34;64.38;97974.51;109598;1251;62229;-64
2023/12/01 10:46:59;;;;;;;62.90;30.60;;;;;;;7.28;65.11;97966.89;109606;1251;77031;-65
2023/12/01 10:49:27;;;;;;;49.60;26.80;;;;;;;7.33;64.07;97971.73;109433;1254;67588;-65
2023/12/01 10:51:55;;;;;;;50.80;25.60;;;;;;;7.26;64.21;97989.52;109570;1250;74906;-66
2023/12/01 10:54:25;;;;;;;90.10;42.30;;;;;;;7.25;65.37;97988.52;109512;1254;62133;-68
2023/12/01 10:57:26;;;;;;;126.80;53.50;;;;;;;7.26;65.29;97989.79;109592;1256;60951;-66
2023/12/01 10:59:56;;;;;;;34.60;20.70;;;;;;;7.22;64.95;98008.59;109570;1251;76699;-67
2023/12/01 11:02:26;;;;;;;160.90;99.40;;;;;;;7.11;65.21;98019.70;109561;1251;68706;-66
2023/12/01 11:04:53;;;;;;;57.80;38.40;;;;;;;7.18;66.53;98014.56;109617;1251;72793;-67
2023/12/01 11:07:33;;;;;;;128.80;81.70;;;;;;;7.41;66.71;98018.05;109573;1253;60826;-68
2023/12/01 11:10:03;;;;;;;75.90;52.70;;;;;;;7.40;64.70;98018.70;109603;1251;60256;-68
2023/12/01 11:12:50;;;;;;;126.30;64.80;;;;;;;7.16;64.59;98027.11;109408;1251;74941;-66
2023/12/01 11:15:24;;;;;;;56.20;34.60;;;;;;;6.97;65.35;98035.44;109627;1251;67371;-66
2023/12/01 11:17:52;;;;;;;32.60;20.30;;;;;;;6.88;65.88;98024.36;109584;1251;70826;-68
2023/12/01 11:20:32;;;;;;;31.30;20.40;;;;;;;6.93;66.67;98014.22;109579;1254;62038;-69
2023/12/01 11:23:04;;;;;;;27.00;18.90;;;;;;;6.93;66.24;98016.57;109587;1251;60348;-69
2023/12/01 11:25:48;;;;;;;29.70;20.80;;;;;;;6.78;66.02;98017.33;109578;1251;72557;-69